sensor_id;sensor_type;location;lat;lon;timestamp;pressure;altitude;pressure_sealevel;temperature;humidity
3960;BME280;1994;48.640;8.894;2023-12-04T00:01:53;96175.00;;;-4.49;88.16
3960;BME280;1994;48.640;8.894;2023-12-04T00:04:19;96166.84;;;-4.43;88.09
3960;BME280;1994;48.640;8.894;2023-12-04T00:06:45;96169.09;;;-4.40;88.66
3960;BME280;1994;48.640;8.894;2023-12-04T00:09:10;96164.31;;;-4.43;88.43
3960;BME280;1994;48.640;8.894;2023-12-04T00:11:36;96169.66;;;-4.46;88.34
3960;BME280;1994;48.640;8.894;2023-12-04T00:14:02;96159.59;;;-4.55;88.60
3960;BME280;1994;48.640;8.894;2023-12-04T00:16:28;96152.94;;;-4.56;89.34
3960;BME280;1994;48.640;8.894;2023-12-04T00:18:54;96148.03;;;-4.58;89.04
3960;BME280;1994;48.640;8.894;2023-12-04T00:21:20;96147.38;;;-4.60;89.14
3960;BME280;1994;48.640;8.894;2023-12-04T00:23:46;96141.00;;;-4.64;88.70
3960;BME280;1994;48.640;8.894;2023-12-04T00:26:12;96133.81;;;-4.59;88.39
3960;BME280;1994;48.640;8.894;2023-12-04T00:28:38;96136.72;;;-4.54;88.59
3960;BME280;1994;48.640;8.894;2023-12-04T00:31:05;96131.16;;;-4.57;88.25
3960;BME280;1994;48.640;8.894;2023-12-04T00:33:31;96132.22;;;-4.60;88.48
3960;BME280;1994;48.640;8.894;2023-12-04T00:35:57;96118.66;;;-4.59;88.24
3960;BME280;1994;48.640;8.894;2023-12-04T00:38:23;96124.13;;;-4.63;88.04
3960;BME280;1994;48.640;8.894;2023-12-04T00:40:48;96122.38;;;-4.63;87.69
3960;BME280;1994;48.640;8.894;2023-12-04T00:43:14;96123.88;;;-4.70;87.42
3960;BME280;1994;48.640;8.894;2023-12-04T00:45:40;96109.09;;;-4.65;88.31
3960;BME280;1994;48.640;8.894;2023-12-04T00:48:06;96105.38;;;-4.61;87.99
3960;BME280;1994;48.640;8.894;2023-12-04T00:50:32;96113.59;;;-4.59;88.26
3960;BME280;1994;48.640;8.894;2023-12-04T00:52:58;96115.47;;;-4.61;88.86
3960;BME280;1994;48.640;8.894;2023-12-04T00:55:23;96114.63;;;-4.52;88.99
3960;BME280;1994;48.640;8.894;2023-12-04T00:57:49;96115.91;;;-4.48;88.93
3960;BME280;1994;48.640;8.894;2023-12-04T01:00:15;96107.94;;;-4.43;88.94
3960;BME280;1994;48.640;8.894;2023-12-04T01:02:41;96115.84;;;-4.38;89.12
3960;BME280;1994;48.640;8.894;2023-12-04T01:05:08;96112.91;;;-4.34;88.66
3960;BME280;1994;48.640;8.894;2023-12-04T01:07:34;96121.44;;;-4.35;88.77
3960;BME280;1994;48.640;8.894;2023-12-04T01:10:00;96115.31;;;-4.32;88.69
3960;BME280;1994;48.640;8.894;2023-12-04T01:12:26;96109.72;;;-4.36;88.75
3960;BME280;1994;48.640;8.894;2023-12-04T01:14:52;96106.28;;;-4.35;88.45
3960;BME280;1994;48.640;8.894;2023-12-04T01:17:18;96107.88;;;-4.34;88.53
3960;BME280;1994;48.640;8.894;2023-12-04T01:19:44;96100.91;;;-4.32;88.64
3960;BME280;1994;48.640;8.894;2023-12-04T01:22:10;96090.53;;;-4.29;88.10
3960;BME280;1994;48.640;8.894;2023-12-04T01:24:36;96095.88;;;-4.32;87.78
3960;BME280;1994;48.640;8.894;2023-12-04T01:27:02;96086.34;;;-4.38;87.25
3960;BME280;1994;48.640;8.894;2023-12-04T01:29:28;96090.66;;;-4.48;87.74
3960;BME280;1994;48.640;8.894;2023-12-04T01:31:54;96083.78;;;-4.55;87.53
3960;BME280;1994;48.640;8.894;2023-12-04T01:34:20;96075.88;;;-4.70;88.29
3960;BME280;1994;48.640;8.894;2023-12-04T01:36:46;96084.22;;;-4.87;89.15
3960;BME280;1994;48.640;8.894;2023-12-04T01:39:11;96076.56;;;-4.95;89.72
3960;BME280;1994;48.640;8.894;2023-12-04T01:41:37;96076.06;;;-5.08;89.93
3960;BME280;1994;48.640;8.894;2023-12-04T01:44:03;96078.03;;;-5.02;90.18
3960;BME280;1994;48.640;8.894;2023-12-04T01:46:30;96082.56;;;-5.05;89.77
3960;BME280;1994;48.640;8.894;2023-12-04T01:48:56;96078.41;;;-4.97;90.26
3960;BME280;1994;48.640;8.894;2023-12-04T01:51:23;96075.44;;;-4.83;89.95
3960;BME280;1994;48.640;8.894;2023-12-04T01:53:49;96071.84;;;-4.80;90.16
3960;BME280;1994;48.640;8.894;2023-12-04T01:56:16;96065.00;;;-4.70;89.78
3960;BME280;1994;48.640;8.894;2023-12-04T01:58:43;96059.94;;;-4.70;89.71
3960;BME280;1994;48.640;8.894;2023-12-04T02:01:09;96055.16;;;-4.73;89.74
3960;BME280;1994;48.640;8.894;2023-12-04T02:03:36;96054.91;;;-4.70;89.33
3960;BME280;1994;48.640;8.894;2023-12-04T02:06:03;96054.56;;;-4.85;89.65
3960;BME280;1994;48.640;8.894;2023-12-04T02:08:31;96052.31;;;-4.88;90.64
3960;BME280;1994;48.640;8.894;2023-12-04T02:10:57;96060.91;;;-5.08;90.02
3960;BME280;1994;48.640;8.894;2023-12-04T02:13:23;96062.16;;;-5.12;90.83
3960;BME280;1994;48.640;8.894;2023-12-04T02:15:53;96065.97;;;-5.08;90.73
3960;BME280;1994;48.640;8.894;2023-12-04T02:18:19;96062.63;;;-4.99;90.59
3960;BME280;1994;48.640;8.894;2023-12-04T02:20:46;96059.78;;;-4.96;91.30
3960;BME280;1994;48.640;8.894;2023-12-04T02:23:11;96058.03;;;-4.86;90.67
3960;BME280;1994;48.640;8.894;2023-12-04T02:25:38;96047.09;;;-5.04;90.97
3960;BME280;1994;48.640;8.894;2023-12-04T02:28:10;96052.41;;;-5.07;91.61
3960;BME280;1994;48.640;8.894;2023-12-04T02:30:38;96045.50;;;-5.05;91.69
3960;BME280;1994;48.640;8.894;2023-12-04T02:33:07;96042.59;;;-5.10;91.43
3960;BME280;1994;48.640;8.894;2023-12-04T02:35:34;96044.75;;;-5.15;91.36
3960;BME280;1994;48.640;8.894;2023-12-04T02:38:01;96036.59;;;-5.09;91.46
3960;BME280;1994;48.640;8.894;2023-12-04T02:40:28;96028.19;;;-5.00;91.32
3960;BME280;1994;48.640;8.894;2023-12-04T02:42:54;96034.28;;;-4.93;90.56
3960;BME280;1994;48.640;8.894;2023-12-04T02:45:20;96033.13;;;-4.81;90.64
3960;BME280;1994;48.640;8.894;2023-12-04T02:47:46;96016.91;;;-4.78;90.62
3960;BME280;1994;48.640;8.894;2023-12-04T02:50:12;96017.13;;;-4.72;90.59
3960;BME280;1994;48.640;8.894;2023-12-04T02:52:37;96017.63;;;-4.68;90.06
3960;BME280;1994;48.640;8.894;2023-12-04T02:55:05;96010.34;;;-4.71;90.31
3960;BME280;1994;48.640;8.894;2023-12-04T02:57:31;95999.50;;;-4.64;90.53
3960;BME280;1994;48.640;8.894;2023-12-04T02:59:56;95994.19;;;-4.61;90.23
3960;BME280;1994;48.640;8.894;2023-12-04T03:02:22;95984.94;;;-4.70;89.96
3960;BME280;1994;48.640;8.894;2023-12-04T03:04:48;95994.31;;;-4.80;89.71
3960;BME280;1994;48.640;8.894;2023-12-04T03:07:14;95988.59;;;-4.82;89.53
3960;BME280;1994;48.640;8.894;2023-12-04T03:09:45;95988.66;;;-4.74;89.72
3960;BME280;1994;48.640;8.894;2023-12-04T03:12:11;95983.41;;;-4.80;88.81
3960;BME280;1994;48.640;8.894;2023-12-04T03:14:37;95978.78;;;-4.85;88.99
3960;BME280;1994;48.640;8.894;2023-12-04T03:17:03;95970.56;;;-4.87;88.76
3960;BME280;1994;48.640;8.894;2023-12-04T03:19:29;95962.13;;;-4.78;88.95
3960;BME280;1994;48.640;8.894;2023-12-04T03:21:54;95951.34;;;-4.80;89.22
3960;BME280;1994;48.640;8.894;2023-12-04T03:24:20;95946.09;;;-4.69;89.31
3960;BME280;1994;48.640;8.894;2023-12-04T03:26:46;95944.88;;;-4.65;89.13
3960;BME280;1994;48.640;8.894;2023-12-04T03:29:12;95941.75;;;-4.59;89.00
3960;BME280;1994;48.640;8.894;2023-12-04T03:31:38;95934.41;;;-4.52;88.75
3960;BME280;1994;48.640;8.894;2023-12-04T03:34:04;95932.38;;;-4.49;88.74
3960;BME280;1994;48.640;8.894;2023-12-04T03:36:30;95935.53;;;-4.47;88.66
3960;BME280;1994;48.640;8.894;2023-12-04T03:38:56;95934.44;;;-4.44;88.12
3960;BME280;1994;48.640;8.894;2023-12-04T03:41:21;95933.09;;;-4.39;88.50
3960;BME280;1994;48.640;8.894;2023-12-04T03:43:48;95933.38;;;-4.42;88.81
3960;BME280;1994;48.640;8.894;2023-12-04T03:46:14;95941.31;;;-4.37;88.38
3960;BME280;1994;48.640;8.894;2023-12-04T03:48:40;95933.09;;;-4.39;87.64
3960;BME280;1994;48.640;8.894;2023-12-04T03:51:06;95931.00;;;-4.43;87.31
3960;BME280;1994;48.640;8.894;2023-12-04T03:53:32;95924.50;;;-4.46;87.90
3960;BME280;1994;48.640;8.894;2023-12-04T03:55:59;95929.41;;;-4.44;87.17
3960;BME280;1994;48.640;8.894;2023-12-04T03:58:24;95923.47;;;-4.35;87.66
3960;BME280;1994;48.640;8.894;2023-12-04T04:00:50;95921.78;;;-4.27;87.52
3960;BME280;1994;48.640;8.894;2023-12-04T04:03:16;95926.25;;;-4.21;87.84
3960;BME280;1994;48.640;8.894;2023-12-04T04:05:42;95935.06;;;-4.25;87.67
3960;BME280;1994;48.640;8.894;2023-12-04T04:08:07;95930.59;;;-4.31;87.41
3960;BME280;1994;48.640;8.894;2023-12-04T04:10:34;95927.94;;;-4.04;91.41
3960;BME280;1994;48.640;8.894;2023-12-04T04:13:00;95926.06;;;-3.68;91.18
3960;BME280;1994;48.640;8.894;2023-12-04T04:15:26;95923.38;;;-3.33;92.06
3960;BME280;1994;48.640;8.894;2023-12-04T04:17:52;95922.91;;;-3.37;88.96
3960;BME280;1994;48.640;8.894;2023-12-04T04:20:21;95921.56;;;-3.57;87.20
3960;BME280;1994;48.640;8.894;2023-12-04T04:22:50;95923.06;;;-3.72;86.48
3960;BME280;1994;48.640;8.894;2023-12-04T04:25:16;95926.16;;;-3.86;85.90
3960;BME280;1994;48.640;8.894;2023-12-04T04:27:41;95925.06;;;-4.09;86.48
3960;BME280;1994;48.640;8.894;2023-12-04T04:30:10;95925.16;;;-4.44;87.50
3960;BME280;1994;48.640;8.894;2023-12-04T04:32:39;95927.03;;;-4.46;87.59
3960;BME280;1994;48.640;8.894;2023-12-04T04:35:05;95924.38;;;-4.62;88.15
3960;BME280;1994;48.640;8.894;2023-12-04T04:37:31;95915.72;;;-4.59;88.48
3960;BME280;1994;48.640;8.894;2023-12-04T04:39:57;95915.50;;;-4.66;89.16
3960;BME280;1994;48.640;8.894;2023-12-04T04:42:23;95914.50;;;-4.73;89.15
3960;BME280;1994;48.640;8.894;2023-12-04T04:44:48;95914.28;;;-4.79;90.07
3960;BME280;1994;48.640;8.894;2023-12-04T04:47:14;95905.53;;;-4.85;89.90
3960;BME280;1994;48.640;8.894;2023-12-04T04:49:40;95905.25;;;-4.82;90.50
3960;BME280;1994;48.640;8.894;2023-12-04T04:52:07;95897.44;;;-4.71;90.64
3960;BME280;1994;48.640;8.894;2023-12-04T04:54:33;95886.75;;;-4.65;89.93
3960;BME280;1994;48.640;8.894;2023-12-04T04:56:59;95887.47;;;-4.55;89.95
3960;BME280;1994;48.640;8.894;2023-12-04T04:59:27;95885.00;;;-4.47;89.98
3960;BME280;1994;48.640;8.894;2023-12-04T05:01:56;95879.06;;;-4.38;89.68
3960;BME280;1994;48.640;8.894;2023-12-04T05:04:22;95878.41;;;-4.40;89.07
3960;BME280;1994;48.640;8.894;2023-12-04T05:06:51;95872.06;;;-4.44;88.82
3960;BME280;1994;48.640;8.894;2023-12-04T05:09:17;95867.66;;;-4.42;88.97
3960;BME280;1994;48.640;8.894;2023-12-04T05:11:42;95857.13;;;-4.37;89.02
3960;BME280;1994;48.640;8.894;2023-12-04T05:14:08;95859.44;;;-4.44;88.95
3960;BME280;1994;48.640;8.894;2023-12-04T05:16:34;95861.25;;;-4.54;88.81
3960;BME280;1994;48.640;8.894;2023-12-04T05:19:00;95850.69;;;-4.49;88.92
3960;BME280;1994;48.640;8.894;2023-12-04T05:21:25;95850.91;;;-4.43;89.44
3960;BME280;1994;48.640;8.894;2023-12-04T05:23:51;95848.44;;;-4.35;88.93
3960;BME280;1994;48.640;8.894;2023-12-04T05:26:17;95843.38;;;-4.35;88.96
3960;BME280;1994;48.640;8.894;2023-12-04T05:28:45;95838.97;;;-4.33;89.24
3960;BME280;1994;48.640;8.894;2023-12-04T05:31:12;95843.56;;;-4.28;88.92
3960;BME280;1994;48.640;8.894;2023-12-04T05:33:37;95840.53;;;-4.32;89.08
3960;BME280;1994;48.640;8.894;2023-12-04T05:36:12;95839.31;;;-4.28;89.06
3960;BME280;1994;48.640;8.894;2023-12-04T05:38:37;95843.06;;;-4.32;89.31
3960;BME280;1994;48.640;8.894;2023-12-04T05:41:03;95838.31;;;-4.35;89.56
3960;BME280;1994;48.640;8.894;2023-12-04T05:43:29;95841.78;;;-4.36;89.40
3960;BME280;1994;48.640;8.894;2023-12-04T05:45:55;95841.78;;;-4.36;89.36
3960;BME280;1994;48.640;8.894;2023-12-04T05:48:20;95841.28;;;-4.39;89.30
3960;BME280;1994;48.640;8.894;2023-12-04T05:50:46;95838.94;;;-4.41;89.68
3960;BME280;1994;48.640;8.894;2023-12-04T05:53:12;95841.09;;;-4.46;89.58
3960;BME280;1994;48.640;8.894;2023-12-04T05:55:38;95839.38;;;-4.63;90.88
3960;BME280;1994;48.640;8.894;2023-12-04T05:58:04;95828.06;;;-4.59;90.99
3960;BME280;1994;48.640;8.894;2023-12-04T06:00:29;95831.47;;;-4.68;91.38
3960;BME280;1994;48.640;8.894;2023-12-04T06:02:55;95834.94;;;-4.69;91.43
3960;BME280;1994;48.640;8.894;2023-12-04T06:05:21;95831.13;;;-4.73;91.26
3960;BME280;1994;48.640;8.894;2023-12-04T06:07:47;95829.75;;;-4.85;91.24
3960;BME280;1994;48.640;8.894;2023-12-04T06:10:13;95827.31;;;-4.77;91.40
3960;BME280;1994;48.640;8.894;2023-12-04T06:12:39;95830.28;;;-4.81;91.43
3960;BME280;1994;48.640;8.894;2023-12-04T06:15:05;95828.66;;;-4.82;91.12
3960;BME280;1994;48.640;8.894;2023-12-04T06:17:31;95824.72;;;-4.85;91.23
3960;BME280;1994;48.640;8.894;2023-12-04T06:19:57;95822.88;;;-4.75;91.01
3960;BME280;1994;48.640;8.894;2023-12-04T06:22:23;95828.59;;;-4.73;90.50
3960;BME280;1994;48.640;8.894;2023-12-04T06:24:49;95825.41;;;-4.75;90.77
3960;BME280;1994;48.640;8.894;2023-12-04T06:27:18;95820.97;;;-4.81;90.95
3960;BME280;1994;48.640;8.894;2023-12-04T06:29:48;95817.00;;;-4.83;90.68
3960;BME280;1994;48.640;8.894;2023-12-04T06:32:15;95817.84;;;-4.75;90.89
3960;BME280;1994;48.640;8.894;2023-12-04T06:34:41;95811.84;;;-4.74;90.26
3960;BME280;1994;48.640;8.894;2023-12-04T06:37:11;95798.88;;;-4.79;89.90
3960;BME280;1994;48.640;8.894;2023-12-04T06:39:41;95795.69;;;-4.81;90.13
3960;BME280;1994;48.640;8.894;2023-12-04T06:42:08;95792.22;;;-4.80;89.74
3960;BME280;1994;48.640;8.894;2023-12-04T06:44:36;95794.75;;;-4.80;90.75
3960;BME280;1994;48.640;8.894;2023-12-04T06:47:02;95789.78;;;-4.72;90.67
3960;BME280;1994;48.640;8.894;2023-12-04T06:49:32;95789.78;;;-4.72;90.99
3960;BME280;1994;48.640;8.894;2023-12-04T06:51:59;95779.16;;;-4.50;91.31
3960;BME280;1994;48.640;8.894;2023-12-04T06:54:26;95779.78;;;-4.48;90.69
3960;BME280;1994;48.640;8.894;2023-12-04T06:56:52;95770.44;;;-4.55;90.31
3960;BME280;1994;48.640;8.894;2023-12-04T06:59:18;95769.94;;;-4.59;90.49
3960;BME280;1994;48.640;8.894;2023-12-04T07:01:44;95776.66;;;-4.42;90.35
3960;BME280;1994;48.640;8.894;2023-12-04T07:04:10;95775.47;;;-4.30;89.29
3960;BME280;1994;48.640;8.894;2023-12-04T07:06:40;95779.59;;;-4.21;89.60
3960;BME280;1994;48.640;8.894;2023-12-04T07:09:06;95775.47;;;-4.30;89.85
3960;BME280;1994;48.640;8.894;2023-12-04T07:11:35;95782.13;;;-4.29;89.55
3960;BME280;1994;48.640;8.894;2023-12-04T07:14:01;95766.63;;;-4.26;89.71
3960;BME280;1994;48.640;8.894;2023-12-04T07:16:27;95767.56;;;-4.27;88.51
3960;BME280;1994;48.640;8.894;2023-12-04T07:18:52;95770.91;;;-4.26;89.35
3960;BME280;1994;48.640;8.894;2023-12-04T07:21:18;95769.41;;;-4.37;88.97
3960;BME280;1994;48.640;8.894;2023-12-04T07:23:44;95765.94;;;-4.36;88.79
3960;BME280;1994;48.640;8.894;2023-12-04T07:26:10;95762.16;;;-4.40;89.39
3960;BME280;1994;48.640;8.894;2023-12-04T07:28:36;95764.72;;;-4.32;89.17
3960;BME280;1994;48.640;8.894;2023-12-04T07:31:02;95763.81;;;-4.15;89.24
3960;BME280;1994;48.640;8.894;2023-12-04T07:33:28;95756.84;;;-4.29;89.19
3960;BME280;1994;48.640;8.894;2023-12-04T07:35:57;95761.22;;;-4.39;89.39
3960;BME280;1994;48.640;8.894;2023-12-04T07:38:22;95760.63;;;-4.25;89.29
3960;BME280;1994;48.640;8.894;2023-12-04T07:40:54;95775.56;;;-4.06;89.33
3960;BME280;1994;48.640;8.894;2023-12-04T07:43:20;95760.66;;;-4.17;89.16
3960;BME280;1994;48.640;8.894;2023-12-04T07:45:46;95759.47;;;-3.97;88.86
3960;BME280;1994;48.640;8.894;2023-12-04T07:48:12;95764.81;;;-4.08;88.87
3960;BME280;1994;48.640;8.894;2023-12-04T07:50:38;95764.84;;;-4.00;89.36
3960;BME280;1994;48.640;8.894;2023-12-04T07:53:05;95764.22;;;-4.02;89.47
3960;BME280;1994;48.640;8.894;2023-12-04T07:55:31;95762.97;;;-3.90;88.91
3960;BME280;1994;48.640;8.894;2023-12-04T07:57:57;95765.84;;;-3.85;89.19
3960;BME280;1994;48.640;8.894;2023-12-04T08:00:23;95771.94;;;-3.95;89.69
3960;BME280;1994;48.640;8.894;2023-12-04T08:02:48;95764.22;;;-4.02;89.90
3960;BME280;1994;48.640;8.894;2023-12-04T08:05:14;95767.38;;;-4.00;89.94
3960;BME280;1994;48.640;8.894;2023-12-04T08:07:40;95754.38;;;-4.13;90.23
3960;BME280;1994;48.640;8.894;2023-12-04T08:10:07;95741.88;;;-4.06;90.56
3960;BME280;1994;48.640;8.894;2023-12-04T08:12:33;95736.06;;;-4.07;90.26
3960;BME280;1994;48.640;8.894;2023-12-04T08:15:04;95744.81;;;-4.27;90.41
3960;BME280;1994;48.640;8.894;2023-12-04T08:17:33;95741.72;;;-4.13;90.82
3960;BME280;1994;48.640;8.894;2023-12-04T08:19:59;95740.44;;;-4.17;91.16
3960;BME280;1994;48.640;8.894;2023-12-04T08:22:25;95732.88;;;-4.09;91.13
3960;BME280;1994;48.640;8.894;2023-12-04T08:25:00;95729.75;;;-3.95;90.97
3960;BME280;1994;48.640;8.894;2023-12-04T08:27:26;95733.28;;;-3.80;90.66
3960;BME280;1994;48.640;8.894;2023-12-04T08:29:52;95737.53;;;-3.80;91.05
3960;BME280;1994;48.640;8.894;2023-12-04T08:32:18;95738.97;;;-3.86;91.04
3960;BME280;1994;48.640;8.894;2023-12-04T08:34:45;95733.28;;;-3.80;91.07
3960;BME280;1994;48.640;8.894;2023-12-04T08:37:16;95732.00;;;-3.92;91.75
3960;BME280;1994;48.640;8.894;2023-12-04T08:39:45;95737.38;;;-3.71;91.49
3960;BME280;1994;48.640;8.894;2023-12-04T08:42:12;95734.22;;;-3.73;91.42
3960;BME280;1994;48.640;8.894;2023-12-04T08:44:38;95735.81;;;-3.72;91.49
3960;BME280;1994;48.640;8.894;2023-12-04T08:47:04;95731.44;;;-3.54;91.33
3960;BME280;1994;48.640;8.894;2023-12-04T08:49:30;95732.31;;;-3.71;91.38
3960;BME280;1994;48.640;8.894;2023-12-04T08:51:56;95734.56;;;-3.60;92.25
3960;BME280;1994;48.640;8.894;2023-12-04T08:54:24;95735.84;;;-3.48;92.15
3960;BME280;1994;48.640;8.894;2023-12-04T08:56:50;95729.84;;;-3.47;91.58
3960;BME280;1994;48.640;8.894;2023-12-04T08:59:16;95728.25;;;-3.48;91.72
3960;BME280;1994;48.640;8.894;2023-12-04T09:01:43;95729.84;;;-3.39;91.19
3960;BME280;1994;48.640;8.894;2023-12-04T09:04:09;95723.81;;;-3.38;91.28
3960;BME280;1994;48.640;8.894;2023-12-04T09:06:36;95736.16;;;-3.27;90.95
3960;BME280;1994;48.640;8.894;2023-12-04T09:09:01;95747.25;;;-3.20;90.56
3960;BME280;1994;48.640;8.894;2023-12-04T09:11:30;95733.97;;;-3.30;91.05
3960;BME280;1994;48.640;8.894;2023-12-04T09:13:56;95742.81;;;-3.26;90.76
3960;BME280;1994;48.640;8.894;2023-12-04T09:16:23;95747.25;;;-3.20;90.85
3960;BME280;1994;48.640;8.894;2023-12-04T09:18:48;95745.19;;;-3.16;90.67
3960;BME280;1994;48.640;8.894;2023-12-04T09:21:14;95751.97;;;-3.01;91.01
3960;BME280;1994;48.640;8.894;2023-12-04T09:23:40;95756.09;;;-2.92;90.47
3960;BME280;1994;48.640;8.894;2023-12-04T09:26:06;95738.66;;;-2.79;90.20
3960;BME280;1994;48.640;8.894;2023-12-04T09:28:32;95742.75;;;-2.78;89.65
3960;BME280;1994;48.640;8.894;2023-12-04T09:30:57;95747.22;;;-2.80;90.45
3960;BME280;1994;48.640;8.894;2023-12-04T09:33:23;95745.59;;;-2.73;90.10
3960;BME280;1994;48.640;8.894;2023-12-04T09:35:56;95788.09;;;-2.83;90.14
3960;BME280;1994;48.640;8.894;2023-12-04T09:38:21;95744.38;;;-2.85;90.73
3960;BME280;1994;48.640;8.894;2023-12-04T09:40:48;95763.53;;;-2.74;90.67
3960;BME280;1994;48.640;8.894;2023-12-04T09:43:15;95763.22;;;-2.87;91.37
3960;BME280;1994;48.640;8.894;2023-12-04T09:45:42;95753.41;;;-2.74;91.57
3960;BME280;1994;48.640;8.894;2023-12-04T09:48:08;95747.19;;;-2.56;91.27
3960;BME280;1994;48.640;8.894;2023-12-04T09:50:36;95766.66;;;-2.56;91.70
3960;BME280;1994;48.640;8.894;2023-12-04T09:53:02;95752.84;;;-2.38;91.30
3960;BME280;1994;48.640;8.894;2023-12-04T09:55:29;95755.22;;;-2.36;90.94
3960;BME280;1994;48.640;8.894;2023-12-04T09:57:55;95762.31;;;-2.40;91.83
3960;BME280;1994;48.640;8.894;2023-12-04T10:00:22;95759.03;;;-2.48;91.99
3960;BME280;1994;48.640;8.894;2023-12-04T10:02:49;95768.41;;;-2.49;93.00
3960;BME280;1994;48.640;8.894;2023-12-04T10:05:15;95769.34;;;-2.58;92.93
3960;BME280;1994;48.640;8.894;2023-12-04T10:07:41;95766.50;;;-2.63;94.01
3960;BME280;1994;48.640;8.894;2023-12-04T10:10:10;95755.41;;;-2.54;94.11
3960;BME280;1994;48.640;8.894;2023-12-04T10:12:36;95736.38;;;-2.50;94.01
3960;BME280;1994;48.640;8.894;2023-12-04T10:15:11;95737.25;;;-2.27;93.40
3960;BME280;1994;48.640;8.894;2023-12-04T10:17:39;95731.19;;;-2.18;93.16
3960;BME280;1994;48.640;8.894;2023-12-04T10:20:15;95727.81;;;-2.02;92.98
3960;BME280;1994;48.640;8.894;2023-12-04T10:22:56;95716.78;;;-1.87;92.47
3960;BME280;1994;48.640;8.894;2023-12-04T10:25:24;95707.25;;;-1.85;92.92
3960;BME280;1994;48.640;8.894;2023-12-04T10:27:51;95696.13;;;-1.84;92.08
3960;BME280;1994;48.640;8.894;2023-12-04T10:30:27;95691.47;;;-1.50;92.12
3960;BME280;1994;48.640;8.894;2023-12-04T10:33:05;95698.22;;;-1.65;91.44
3960;BME280;1994;48.640;8.894;2023-12-04T10:35:33;95693.72;;;-1.55;91.50
3960;BME280;1994;48.640;8.894;2023-12-04T10:38:04;95693.00;;;-1.41;91.90
3960;BME280;1994;48.640;8.894;2023-12-04T10:40:36;95682.72;;;-1.25;91.26
3960;BME280;1994;48.640;8.894;2023-12-04T10:43:19;95670.03;;;-0.96;90.53
3960;BME280;1994;48.640;8.894;2023-12-04T10:45:47;95651.72;;;-0.91;89.86
3960;BME280;1994;48.640;8.894;2023-12-04T10:48:15;95655.59;;;-0.81;88.94
3960;BME280;1994;48.640;8.894;2023-12-04T10:50:45;95649.00;;;-0.61;88.95
3960;BME280;1994;48.640;8.894;2023-12-04T10:53:12;95644.09;;;-0.48;88.93
3960;BME280;1994;48.640;8.894;2023-12-04T10:55:40;95647.84;;;-0.44;88.79
3960;BME280;1994;48.640;8.894;2023-12-04T10:58:12;95648.81;;;-0.45;88.74
3960;BME280;1994;48.640;8.894;2023-12-04T11:00:44;95638.31;;;-0.42;88.42
3960;BME280;1994;48.640;8.894;2023-12-04T11:03:40;95645.69;;;-0.76;89.03
3960;BME280;1994;48.640;8.894;2023-12-04T11:06:05;95648.56;;;-0.93;89.88
3960;BME280;1994;48.640;8.894;2023-12-04T11:08:35;95640.84;;;-1.00;90.97
3960;BME280;1994;48.640;8.894;2023-12-04T11:11:04;95636.13;;;-1.03;91.15
3960;BME280;1994;48.640;8.894;2023-12-04T11:13:37;95618.50;;;-1.19;92.26
3960;BME280;1994;48.640;8.894;2023-12-04T11:16:47;95615.53;;;-1.08;93.53
3960;BME280;1994;48.640;8.894;2023-12-04T11:22:03;95616.84;;;-0.83;92.87
3960;BME280;1994;48.640;8.894;2023-12-04T11:24:31;95610.34;;;-0.85;92.43
3960;BME280;1994;48.640;8.894;2023-12-04T11:26:58;95601.13;;;-0.72;92.22
3960;BME280;1994;48.640;8.894;2023-12-04T11:29:24;95598.50;;;-0.64;91.88
3960;BME280;1994;48.640;8.894;2023-12-04T11:31:51;95584.63;;;-0.47;91.59
3960;BME280;1994;48.640;8.894;2023-12-04T11:34:16;95577.75;;;-0.32;91.47
3960;BME280;1994;48.640;8.894;2023-12-04T11:36:42;95565.63;;;-0.30;91.25
3960;BME280;1994;48.640;8.894;2023-12-04T11:39:10;95560.66;;;-0.17;90.69
3960;BME280;1994;48.640;8.894;2023-12-04T11:41:41;95549.28;;;-0.21;90.11
3960;BME280;1994;48.640;8.894;2023-12-04T11:44:13;95540.19;;;-0.30;89.30
3960;BME280;1994;48.640;8.894;2023-12-04T11:47:05;95535.94;;;-0.23;89.87
3960;BME280;1994;48.640;8.894;2023-12-04T11:49:32;95522.97;;;-0.07;90.33
3960;BME280;1994;48.640;8.894;2023-12-04T11:51:59;95519.69;;;-0.01;89.80
3960;BME280;1994;48.640;8.894;2023-12-04T11:54:56;95528.69;;;-0.26;90.28
3960;BME280;1994;48.640;8.894;2023-12-04T11:57:24;95531.06;;;-0.24;90.32
3960;BME280;1994;48.640;8.894;2023-12-04T11:59:52;95530.00;;;-0.30;90.72
3960;BME280;1994;48.640;8.894;2023-12-04T12:02:18;95530.66;;;-0.43;90.19
3960;BME280;1994;48.640;8.894;2023-12-04T12:04:44;95527.59;;;-0.38;91.07
3960;BME280;1994;48.640;8.894;2023-12-04T12:07:15;95517.03;;;-0.35;90.67
3960;BME280;1994;48.640;8.894;2023-12-04T12:09:41;95513.16;;;-0.31;90.33
3960;BME280;1994;48.640;8.894;2023-12-04T12:12:07;95503.25;;;-0.26;90.46
3960;BME280;1994;48.640;8.894;2023-12-04T12:14:34;95503.06;;;-0.24;89.72
3960;BME280;1994;48.640;8.894;2023-12-04T12:17:01;95494.06;;;-0.21;90.13
3960;BME280;1994;48.640;8.894;2023-12-04T12:19:27;95497.53;;;-0.28;89.98
3960;BME280;1994;48.640;8.894;2023-12-04T12:21:53;95507.94;;;-0.44;90.18
3960;BME280;1994;48.640;8.894;2023-12-04T12:24:19;95506.78;;;-0.42;91.08
3960;BME280;1994;48.640;8.894;2023-12-04T12:26:51;95500.94;;;-0.42;90.66
3960;BME280;1994;48.640;8.894;2023-12-04T12:29:17;95493.06;;;-0.47;90.51
3960;BME280;1994;48.640;8.894;2023-12-04T12:31:43;95485.78;;;-0.50;90.71
3960;BME280;1994;48.640;8.894;2023-12-04T12:34:09;95487.78;;;-0.45;90.96
3960;BME280;1994;48.640;8.894;2023-12-04T12:36:35;95479.75;;;-0.49;90.88
3960;BME280;1994;48.640;8.894;2023-12-04T12:39:01;95476.81;;;-0.46;91.02
3960;BME280;1994;48.640;8.894;2023-12-04T12:41:30;95469.19;;;-0.46;91.12
3960;BME280;1994;48.640;8.894;2023-12-04T12:43:56;95473.19;;;-0.37;90.66
3960;BME280;1994;48.640;8.894;2023-12-04T12:46:22;95450.91;;;-0.35;91.31
3960;BME280;1994;48.640;8.894;2023-12-04T12:48:51;95450.91;;;-0.35;92.01
3960;BME280;1994;48.640;8.894;2023-12-04T12:51:17;95447.28;;;-0.47;92.55
3960;BME280;1994;48.640;8.894;2023-12-04T12:53:48;95455.50;;;-0.45;93.88
3960;BME280;1994;48.640;8.894;2023-12-04T12:56:14;95454.34;;;-0.43;94.59
3960;BME280;1994;48.640;8.894;2023-12-04T12:58:41;95454.66;;;-0.52;95.21
3960;BME280;1994;48.640;8.894;2023-12-04T13:01:10;95456.38;;;-0.38;95.94
3960;BME280;1994;48.640;8.894;2023-12-04T13:03:39;95450.41;;;-0.45;95.65
3960;BME280;1994;48.640;8.894;2023-12-04T13:06:05;95444.25;;;-0.36;96.39
3960;BME280;1994;48.640;8.894;2023-12-04T13:08:31;95444.72;;;-0.26;96.31
3960;BME280;1994;48.640;8.894;2023-12-04T13:10:57;95432.59;;;-0.24;96.09
3960;BME280;1994;48.640;8.894;2023-12-04T13:13:23;95428.13;;;-0.43;96.48
3960;BME280;1994;48.640;8.894;2023-12-04T13:15:48;95433.25;;;-0.37;96.59
3960;BME280;1994;48.640;8.894;2023-12-04T13:18:14;95431.88;;;-0.39;96.84
3960;BME280;1994;48.640;8.894;2023-12-04T13:20:40;95421.94;;;-0.34;96.73
3960;BME280;1994;48.640;8.894;2023-12-04T13:23:06;95413.31;;;-0.33;97.16
3960;BME280;1994;48.640;8.894;2023-12-04T13:25:32;95422.91;;;-0.35;97.69